createdAt,value
2019-03-03T00:00:46.205Z,142.70
2019-03-03T00:03:17.355Z,147.93
2019-03-03T00:05:48.500Z,149.17
2019-03-03T00:08:19.715Z,146.35
2019-03-03T00:10:50.875Z,148.95
2019-03-03T00:13:23.022Z,150.62
2019-03-03T00:15:54.104Z,157.25
2019-03-03T00:18:25.171Z,153.15
2019-03-03T00:21:12.983Z,143.75
2019-03-03T00:23:45.123Z,147.95
2019-03-03T00:26:16.206Z,151.27
2019-03-03T00:28:47.382Z,144.05
2019-03-03T00:31:21.566Z,148.32
2019-03-03T00:33:52.642Z,141.53
2019-03-03T00:36:25.107Z,162.55
2019-03-03T00:39:15.771Z,170.12
2019-03-03T00:41:51.257Z,149.18
2019-03-03T00:44:29.471Z,142.20
2019-03-03T00:47:14.226Z,131.00
2019-03-03T00:50:02.863Z,131.03
2019-03-03T00:52:39.153Z,131.63
2019-03-03T00:55:14.529Z,129.37
2019-03-03T00:57:50.769Z,131.00
2019-03-03T01:00:31.691Z,125.37
2019-03-03T01:03:07.241Z,133.97
2019-03-03T01:05:46.072Z,134.32
2019-03-03T01:08:24.697Z,123.07
2019-03-03T01:11:13.503Z,127.77
2019-03-03T01:13:46.142Z,119.80
2019-03-03T01:16:21.734Z,121.77
2019-03-03T01:18:57.387Z,122.02
2019-03-03T01:21:30.066Z,115.00
2019-03-03T01:24:08.874Z,105.35
2019-03-03T01:26:39.851Z,103.63
2019-03-03T01:29:11.098Z,143.72
2019-03-03T01:31:42.834Z,131.27
2019-03-03T01:34:13.859Z,123.90
2019-03-03T01:36:45.037Z,118.62
2019-03-03T01:39:16.784Z,116.93
2019-03-03T01:41:47.856Z,130.52
2019-03-03T01:44:18.856Z,110.72
2019-03-03T01:46:49.933Z,113.32
2019-03-03T01:49:21.106Z,116.70
2019-03-03T01:51:52.285Z,109.22
2019-03-03T01:54:23.381Z,113.50
2019-03-03T01:56:54.554Z,100.70
2019-03-03T01:59:26.221Z,104.25
2019-03-03T02:01:57.363Z,109.48
2019-03-03T02:04:28.388Z,98.90
2019-03-03T02:06:59.598Z,106.72
2019-03-03T02:09:30.793Z,94.67
2019-03-03T02:12:01.767Z,100.07
2019-03-03T02:14:32.902Z,108.70
2019-03-03T02:17:05.673Z,93.78
2019-03-03T02:19:36.842Z,94.47
2019-03-03T02:22:07.880Z,98.45
2019-03-03T02:24:39.247Z,81.37
2019-03-03T02:27:10.393Z,80.65
2019-03-03T02:29:41.493Z,85.75
2019-03-03T02:32:12.810Z,87.27
2019-03-03T02:34:43.980Z,83.75
2019-03-03T02:37:15.052Z,82.37
2019-03-03T02:39:46.146Z,84.85
2019-03-03T02:42:18.501Z,90.25
2019-03-03T02:44:50.260Z,84.40
2019-03-03T02:47:21.328Z,80.45
2019-03-03T02:49:52.397Z,79.03
2019-03-03T02:52:23.544Z,80.20
2019-03-03T02:54:54.609Z,81.55
2019-03-03T02:57:25.674Z,79.60
2019-03-03T02:59:57.658Z,74.47
2019-03-03T03:02:32.981Z,66.05
2019-03-03T03:05:05.727Z,64.45
2019-03-03T03:07:38.490Z,65.30
2019-03-03T03:10:11.531Z,73.80
2019-03-03T03:12:47.262Z,75.15
2019-03-03T03:15:20.066Z,72.17
2019-03-03T03:17:57.062Z,77.75
2019-03-03T03:20:46.123Z,70.08
2019-03-03T03:23:18.939Z,71.30
2019-03-03T03:25:54.287Z,66.22
2019-03-03T03:28:29.714Z,72.53
2019-03-03T03:31:02.515Z,73.65
2019-03-03T03:33:35.375Z,76.10
2019-03-03T03:36:08.129Z,65.28
2019-03-03T03:38:53.304Z,73.35
2019-03-03T03:41:33.244Z,69.42
2019-03-03T03:44:09.067Z,75.40
2019-03-03T03:46:54.321Z,76.92
2019-03-03T03:49:27.001Z,82.92
2019-03-03T03:52:16.266Z,79.00
2019-03-03T03:54:52.274Z,75.50
2019-03-03T03:57:31.099Z,74.12
2019-03-03T04:00:16.516Z,72.35
2019-03-03T04:02:58.373Z,75.20
2019-03-03T04:05:47.770Z,79.87
2019-03-03T04:08:26.814Z,78.20
2019-03-03T04:11:02.490Z,77.32
2019-03-03T04:13:36.298Z,74.95
2019-03-03T04:16:11.984Z,79.45
2019-03-03T04:19:01.518Z,75.20
2019-03-03T04:21:52.675Z,76.33
2019-03-03T04:24:41.719Z,80.97
2019-03-03T04:27:14.425Z,78.52
2019-03-03T04:29:47.246Z,75.47
2019-03-03T04:32:23.113Z,83.60
2019-03-03T04:34:55.857Z,82.20
2019-03-03T04:37:31.262Z,82.55
2019-03-03T04:40:09.793Z,83.72
2019-03-03T04:42:42.507Z,79.27
2019-03-03T04:45:18.049Z,82.00
2019-03-03T04:48:07.246Z,80.83
2019-03-03T04:50:56.311Z,81.35
2019-03-03T04:53:44.396Z,73.30
2019-03-03T04:56:23.054Z,73.87
2019-03-03T04:59:08.020Z,74.92
2019-03-03T05:01:43.569Z,76.77
2019-03-03T05:04:16.273Z,77.50
2019-03-03T05:06:49.187Z,76.22
2019-03-03T05:09:27.616Z,73.60
2019-03-03T05:12:25.799Z,75.28
2019-03-03T05:15:15.106Z,80.53
2019-03-03T05:17:53.717Z,80.75
2019-03-03T05:20:24.789Z,80.42
2019-03-03T05:22:55.777Z,82.67
2019-03-03T05:25:26.913Z,81.47
2019-03-03T05:27:58.013Z,80.67
2019-03-03T05:30:29.147Z,77.20
2019-03-03T05:33:01.306Z,86.45
2019-03-03T05:35:32.446Z,81.37
2019-03-03T05:38:03.540Z,82.60
2019-03-03T05:40:34.697Z,89.85
2019-03-03T05:43:05.792Z,84.27
2019-03-03T05:45:36.754Z,84.77
2019-03-03T05:48:07.854Z,88.15
2019-03-03T05:50:38.928Z,108.67
2019-03-03T05:53:10.030Z,137.35
2019-03-03T05:55:41.103Z,100.00
2019-03-03T05:58:12.193Z,80.72
2019-03-03T06:00:43.342Z,98.97
2019-03-03T06:03:15.173Z,86.10
2019-03-03T06:05:47.459Z,91.97
2019-03-03T06:08:18.791Z,93.58
2019-03-03T06:10:49.926Z,92.30
2019-03-03T06:13:20.927Z,94.58
2019-03-03T06:15:52.067Z,94.40
2019-03-03T06:18:23.278Z,107.85
2019-03-03T06:20:54.419Z,95.72
2019-03-03T06:23:25.512Z,105.97
2019-03-03T06:25:56.578Z,87.53
2019-03-03T06:28:27.777Z,84.40
2019-03-03T06:30:58.847Z,90.85
2019-03-03T06:33:30.036Z,90.60
2019-03-03T06:36:01.100Z,112.47
2019-03-03T06:38:32.095Z,121.42
2019-03-03T06:41:03.134Z,137.52
2019-03-03T06:43:34.137Z,139.65
2019-03-03T06:46:05.273Z,106.03
2019-03-03T06:48:37.404Z,98.15
2019-03-03T06:51:08.502Z,91.00
2019-03-03T06:53:39.598Z,101.18
2019-03-03T06:56:10.670Z,106.83
2019-03-03T06:58:41.769Z,116.90
2019-03-03T07:01:12.726Z,104.72
2019-03-03T07:03:44.207Z,94.22
2019-03-03T07:06:16.137Z,132.12
2019-03-03T07:08:47.225Z,138.65
2019-03-03T07:11:18.286Z,135.40
2019-03-03T07:13:49.281Z,156.12
2019-03-03T07:16:20.368Z,116.00
2019-03-03T07:18:51.457Z,107.90
2019-03-03T07:21:23.783Z,98.35
2019-03-03T07:23:54.877Z,122.75
2019-03-03T07:26:25.948Z,111.83
2019-03-03T07:28:57.121Z,107.43
2019-03-03T07:31:28.918Z,101.87
2019-03-03T07:34:00.162Z,106.85
2019-03-03T07:36:31.223Z,96.63
2019-03-03T07:39:04.126Z,100.97
2019-03-03T07:41:36.806Z,117.00
2019-03-03T07:44:07.964Z,115.65
2019-03-03T07:46:39.178Z,104.20
2019-03-03T07:49:10.434Z,99.00
2019-03-03T07:51:41.739Z,101.50
2019-03-03T07:54:13.919Z,96.22
2019-03-03T07:56:45.107Z,87.20
2019-03-03T07:59:16.266Z,80.15
2019-03-03T08:01:48.430Z,93.47
2019-03-03T08:04:19.582Z,72.80
2019-03-03T08:06:50.781Z,98.40
2019-03-03T08:09:22.103Z,88.72
2019-03-03T08:11:53.342Z,79.97
2019-03-03T08:14:26.046Z,74.95
2019-03-03T08:16:57.103Z,72.97
2019-03-03T08:19:29.270Z,67.53
2019-03-03T08:22:00.296Z,71.37
2019-03-03T08:24:31.620Z,64.60
2019-03-03T08:27:02.948Z,70.28
2019-03-03T08:29:35.077Z,68.00
2019-03-03T08:32:06.257Z,73.80
2019-03-03T08:34:37.490Z,99.20
2019-03-03T08:37:08.556Z,86.63
2019-03-03T08:39:39.543Z,77.90
2019-03-03T08:42:27.704Z,75.65
2019-03-03T08:45:00.458Z,77.53
2019-03-03T08:47:33.249Z,67.85
2019-03-03T08:50:13.657Z,49.70
2019-03-03T08:52:48.994Z,49.15
2019-03-03T08:55:21.985Z,50.80
2019-03-03T08:57:57.800Z,49.03
2019-03-03T09:00:48.667Z,51.05
2019-03-03T09:03:37.737Z,47.70
2019-03-03T09:06:17.131Z,48.40
2019-03-03T09:09:05.911Z,49.53
2019-03-03T09:11:44.922Z,45.28
2019-03-03T09:14:17.618Z,44.27
2019-03-03T09:16:53.627Z,41.37
2019-03-03T09:19:26.327Z,37.42
2019-03-03T09:22:11.250Z,32.88
2019-03-03T09:24:51.248Z,35.45
2019-03-03T09:27:26.970Z,35.20
2019-03-03T09:30:16.218Z,33.98
2019-03-03T09:32:56.515Z,36.20
2019-03-03T09:35:32.424Z,36.85
2019-03-03T09:38:05.151Z,34.88
2019-03-03T09:40:40.923Z,34.88
2019-03-03T09:43:22.958Z,34.65
2019-03-03T13:34:40.924Z,28.25
2019-03-03T13:59:34.157Z,34.38
2019-03-03T14:02:07.030Z,30.82
2019-03-03T14:04:41.162Z,34.70
2019-03-03T14:07:13.836Z,36.03
2019-03-03T14:09:46.526Z,34.25
2019-03-03T14:12:19.102Z,36.38
2019-03-03T14:14:52.782Z,36.08
2019-03-03T14:17:25.365Z,35.95
2019-03-03T14:20:00.636Z,33.75
2019-03-03T14:22:34.363Z,34.78
2019-03-03T14:25:08.980Z,33.53
2019-03-03T14:27:41.830Z,36.08
2019-03-03T14:30:18.484Z,36.03
2019-03-03T14:32:51.130Z,34.80
2019-03-03T14:35:23.639Z,35.10
2019-03-03T14:37:56.296Z,33.45
2019-03-03T14:41:31.371Z,35.40
2019-03-03T14:43:40.132Z,35.58
2019-03-03T14:45:47.851Z,35.88
2019-03-03T14:47:55.532Z,31.05
2019-03-03T14:50:03.075Z,35.28
2019-03-03T14:52:10.658Z,34.70
2019-03-03T14:54:18.331Z,36.93
2019-03-03T14:56:25.960Z,36.73
2019-03-03T14:58:33.612Z,34.88
2019-03-03T15:00:42.153Z,36.13
2019-03-03T15:02:49.635Z,34.13
2019-03-03T15:04:57.211Z,33.83
2019-03-03T15:07:04.825Z,33.48
2019-03-03T15:09:14.012Z,34.00
2019-03-03T15:11:22.034Z,34.67
2019-03-03T15:13:29.648Z,33.63
2019-03-03T15:15:40.985Z,32.53
2019-03-03T15:17:48.533Z,29.42
2019-03-03T15:19:56.353Z,32.85
2019-03-03T15:22:04.195Z,30.90
2019-03-03T15:24:12.914Z,32.08
2019-03-03T15:26:20.519Z,32.08
2019-03-03T15:28:28.317Z,31.97
2019-03-03T15:30:36.066Z,32.85
2019-03-03T15:32:43.781Z,31.70
2019-03-03T15:34:51.427Z,34.48
2019-03-03T15:36:59.029Z,31.52
2019-03-03T15:39:08.945Z,34.05
2019-03-03T15:41:18.198Z,34.90
2019-03-03T15:43:25.682Z,35.13
2019-03-03T15:45:33.461Z,34.88
2019-03-03T15:47:42.332Z,36.80
2019-03-03T15:49:49.812Z,37.23
2019-03-03T15:51:57.384Z,36.80
2019-03-03T15:54:05.200Z,36.58
2019-03-03T15:56:12.921Z,37.58
2019-03-03T15:58:20.536Z,37.93
2019-03-03T16:00:39.967Z,38.50
2019-03-03T16:02:48.364Z,39.45
2019-03-03T16:04:55.878Z,39.00
2019-03-03T16:07:03.454Z,40.43
2019-03-03T16:09:12.822Z,40.58
2019-03-03T16:11:20.472Z,40.25
2019-03-03T16:13:28.010Z,42.95
2019-03-03T16:15:35.591Z,42.00
2019-03-03T16:17:43.444Z,42.73
2019-03-03T16:19:51.026Z,41.23
2019-03-03T16:21:58.676Z,43.87
2019-03-03T16:24:08.555Z,47.75
2019-03-03T16:26:15.673Z,45.20
2019-03-03T16:28:23.231Z,44.40
2019-03-03T16:30:30.981Z,46.35
2019-03-03T16:32:38.565Z,46.13
2019-03-03T16:34:46.218Z,43.98
2019-03-03T16:36:53.822Z,48.23
2019-03-03T16:39:01.477Z,45.70
2019-03-03T16:41:10.666Z,42.43
2019-03-03T16:43:18.346Z,43.02
2019-03-03T16:45:25.824Z,44.90
2019-03-03T16:47:33.310Z,41.23
2019-03-03T16:49:40.974Z,41.35
2019-03-03T16:51:48.673Z,40.52
2019-03-03T16:53:56.254Z,42.30
2019-03-03T16:56:03.937Z,39.35
2019-03-03T16:58:11.688Z,43.08
2019-03-03T17:00:26.785Z,42.43
2019-03-03T17:02:34.422Z,43.15
2019-03-03T17:04:42.185Z,43.63
2019-03-03T17:06:49.772Z,44.25
2019-03-03T17:08:57.389Z,42.08
2019-03-03T17:11:04.853Z,46.65
2019-03-03T17:13:12.437Z,46.30
2019-03-03T17:15:28.233Z,43.45
2019-03-03T17:17:35.886Z,41.10
2019-03-03T17:19:44.759Z,41.53
2019-03-03T17:21:52.366Z,40.05
2019-03-03T17:23:59.948Z,40.83
2019-03-03T17:26:09.447Z,42.25
2019-03-03T17:28:16.915Z,44.13
2019-03-03T17:30:29.631Z,50.33
2019-03-03T17:32:37.155Z,49.00
2019-03-03T17:34:44.667Z,47.30
2019-03-03T17:36:52.322Z,45.03
2019-03-03T17:38:59.803Z,48.83
2019-03-03T17:41:07.473Z,48.50
2019-03-03T17:43:15.123Z,45.88
2019-03-03T17:45:24.106Z,47.90
2019-03-03T17:47:31.614Z,46.00
2019-03-03T17:49:39.200Z,46.45
2019-03-03T17:51:46.682Z,47.60
2019-03-03T17:53:55.000Z,48.28
2019-03-03T17:56:03.293Z,48.73
2019-03-03T17:58:11.659Z,50.48
2019-03-03T18:00:46.310Z,50.38
2019-03-03T18:02:55.617Z,49.83
2019-03-03T18:05:05.708Z,51.35
2019-03-03T18:07:13.757Z,51.13
2019-03-03T18:09:22.018Z,54.15
2019-03-03T18:11:30.067Z,51.98
2019-03-03T18:13:38.405Z,50.88
2019-03-03T18:15:47.014Z,52.50
2019-03-03T18:17:55.589Z,52.93
2019-03-03T18:20:03.670Z,56.58
2019-03-03T18:22:11.233Z,58.17
2019-03-03T18:24:18.805Z,61.45
2019-03-03T18:26:26.491Z,64.22
2019-03-03T18:28:34.060Z,63.80
2019-03-03T18:30:41.702Z,59.98
2019-03-03T18:32:49.642Z,64.55
2019-03-03T18:34:57.211Z,62.88
2019-03-03T18:37:05.058Z,62.90
2019-03-03T18:39:12.736Z,65.83
2019-03-03T18:41:20.307Z,63.28
2019-03-03T18:43:28.011Z,63.75
2019-03-03T18:45:35.790Z,62.08
2019-03-03T18:47:43.737Z,62.65
2019-03-03T18:49:51.267Z,61.65
2019-03-03T18:51:58.871Z,60.55
2019-03-03T18:54:06.594Z,63.02
2019-03-03T18:56:14.170Z,58.65
2019-03-03T18:58:21.674Z,58.58
2019-03-03T19:00:32.188Z,60.75
2019-03-03T19:02:39.976Z,57.33
2019-03-03T19:04:47.661Z,58.65
2019-03-03T19:06:56.167Z,57.83
2019-03-03T19:09:03.792Z,56.18
2019-03-03T19:11:12.998Z,56.85
2019-03-03T19:13:20.684Z,59.10
2019-03-03T19:15:28.333Z,55.67
2019-03-03T19:17:36.177Z,55.73
2019-03-03T19:19:44.834Z,52.00
2019-03-03T19:21:52.527Z,47.73
2019-03-03T19:24:00.147Z,48.68
2019-03-03T19:26:07.623Z,50.78
2019-03-03T19:28:16.526Z,49.90
2019-03-03T19:30:28.985Z,46.35
2019-03-03T19:32:36.547Z,45.43
2019-03-03T19:34:44.105Z,46.42
2019-03-03T19:36:51.725Z,47.80
2019-03-03T19:38:59.311Z,51.48
2019-03-03T19:41:06.853Z,50.00
2019-03-03T19:43:14.540Z,48.20
2019-03-03T19:45:37.946Z,48.70
2019-03-03T19:47:45.829Z,49.60
2019-03-03T19:49:53.571Z,47.60
2019-03-03T19:52:01.471Z,44.40
2019-03-03T19:54:10.133Z,45.83
2019-03-03T19:56:17.761Z,45.73
2019-03-03T19:58:25.467Z,46.40
2019-03-03T20:00:44.065Z,44.38
2019-03-03T20:02:51.749Z,43.58
2019-03-03T20:04:59.363Z,42.27
2019-03-03T20:07:07.446Z,43.70
2019-03-03T20:09:15.705Z,43.17
2019-03-03T20:11:23.247Z,40.78
2019-03-03T20:13:30.993Z,40.43
2019-03-03T20:15:39.136Z,38.48
2019-03-03T20:17:47.847Z,41.75
2019-03-03T20:19:55.390Z,40.05
2019-03-03T20:22:02.994Z,38.85
2019-03-03T20:24:10.640Z,40.12
2019-03-03T20:26:20.879Z,40.85
2019-03-03T20:28:28.713Z,40.38
2019-03-03T20:30:37.995Z,38.58
2019-03-03T20:32:46.039Z,37.50
2019-03-03T20:34:53.757Z,36.70
2019-03-03T20:37:02.775Z,34.10
2019-03-03T20:39:10.588Z,35.35
2019-03-03T20:41:18.371Z,33.02
2019-03-03T20:43:25.950Z,31.40
2019-03-03T20:45:34.739Z,32.98
2019-03-03T20:47:42.292Z,26.57
2019-03-03T20:49:49.903Z,29.50
2019-03-03T20:51:57.469Z,28.27
2019-03-03T20:54:05.178Z,29.40
2019-03-03T20:56:12.819Z,26.10
2019-03-03T20:58:20.466Z,26.82
2019-03-03T21:00:33.056Z,23.85
2019-03-03T21:02:40.629Z,23.55
2019-03-03T21:04:48.202Z,24.52
2019-03-03T21:06:55.808Z,23.65
2019-03-03T21:09:04.458Z,23.20
2019-03-03T21:11:13.625Z,22.10
2019-03-03T21:13:21.304Z,23.55
2019-03-03T21:15:29.030Z,22.50
2019-03-03T21:17:36.685Z,22.73
2019-03-03T21:19:44.374Z,21.55
2019-03-03T21:21:51.914Z,22.90
2019-03-03T21:24:00.575Z,22.50
2019-03-03T21:26:08.089Z,21.40
2019-03-03T21:28:15.676Z,22.80
2019-03-03T21:30:25.638Z,21.85
2019-03-03T21:32:33.413Z,21.77
2019-03-03T21:34:40.994Z,21.05
2019-03-03T21:36:48.749Z,22.13
2019-03-03T21:38:56.397Z,21.75
2019-03-03T21:41:04.015Z,21.52
2019-03-03T21:43:12.672Z,20.15
2019-03-03T21:45:30.651Z,20.02
2019-03-03T21:47:38.230Z,20.20
2019-03-03T21:49:45.713Z,19.15
2019-03-03T21:51:54.294Z,18.05
2019-03-03T21:54:01.989Z,17.92
2019-03-03T21:56:09.675Z,19.12
2019-03-03T21:58:17.642Z,18.52
2019-03-03T22:00:43.467Z,19.92
2019-03-03T22:02:51.051Z,18.70
2019-03-03T22:04:58.657Z,18.92
2019-03-03T22:07:06.308Z,19.55
2019-03-03T22:09:15.291Z,20.20
2019-03-03T22:11:24.497Z,19.37
2019-03-03T22:13:32.085Z,20.10
2019-03-03T22:15:39.632Z,18.50
2019-03-03T22:17:47.146Z,18.85
2019-03-03T22:19:54.638Z,18.25
2019-03-03T22:22:02.211Z,19.45
2019-03-03T22:24:09.824Z,18.50
2019-03-03T22:26:17.403Z,19.52
2019-03-03T22:28:24.884Z,19.92
2019-03-03T22:30:32.463Z,19.73
2019-03-03T22:32:40.318Z,20.15
2019-03-03T22:34:47.900Z,20.70
2019-03-03T22:36:55.501Z,20.43
2019-03-03T22:39:03.081Z,20.48
2019-03-03T22:41:12.135Z,21.73
2019-03-03T22:43:21.403Z,21.40
2019-03-03T22:45:29.071Z,22.22
2019-03-03T22:47:36.643Z,22.60
2019-03-03T22:49:44.394Z,22.55
2019-03-03T22:51:51.868Z,21.62
2019-03-03T22:54:00.733Z,22.48
2019-03-03T22:56:08.336Z,22.70
2019-03-03T22:58:15.997Z,25.23
2019-03-03T23:00:44.324Z,22.50
2019-03-03T23:02:52.831Z,23.73
2019-03-03T23:05:10.845Z,24.47
2019-03-03T23:07:28.264Z,23.47
2019-03-03T23:10:22.776Z,22.85
2019-03-03T23:12:50.395Z,23.52
2019-03-03T23:15:27.922Z,24.72
2019-03-03T23:18:01.201Z,25.52
2019-03-03T23:20:31.564Z,25.80
2019-03-03T23:22:58.734Z,26.55
2019-03-03T23:25:28.530Z,25.70
2019-03-03T23:27:36.024Z,26.87
2019-03-03T23:29:43.598Z,27.30
2019-03-03T23:31:51.177Z,28.27
2019-03-03T23:33:58.777Z,26.97
2019-03-03T23:36:06.488Z,29.18
2019-03-03T23:38:14.134Z,30.55
2019-03-03T23:40:21.748Z,30.20
2019-03-03T23:42:29.316Z,35.52
2019-03-03T23:44:36.789Z,35.05
2019-03-03T23:46:44.529Z,31.45
2019-03-03T23:48:52.169Z,34.43
2019-03-03T23:50:59.811Z,33.15
2019-03-03T23:53:07.309Z,31.95
2019-03-03T23:55:15.345Z,33.58
2019-03-03T23:57:23.543Z,35.15
2019-03-03T23:59:31.296Z,35.05
